sensor_id;sensor_type;location;lat;lon;timestamp;P1;durP1;ratioP1;P2;durP2;ratioP2
50393;SDS011;36308;46.312;25.288;2023-04-25T00:01:04;11.05;;;6.55;;
50393;SDS011;36308;46.312;25.288;2023-04-25T00:03:30;13.18;;;7.10;;
50393;SDS011;36308;46.312;25.288;2023-04-25T00:05:57;10.60;;;7.10;;
50393;SDS011;36308;46.312;25.288;2023-04-25T00:08:29;10.98;;;7.53;;
50393;SDS011;36308;46.312;25.288;2023-04-25T00:10:56;9.70;;;7.15;;
50393;SDS011;36308;46.312;25.288;2023-04-25T00:13:22;12.10;;;7.22;;
50393;SDS011;36308;46.312;25.288;2023-04-25T00:15:48;12.55;;;7.35;;
50393;SDS011;36308;46.312;25.288;2023-04-25T00:18:14;9.00;;;6.47;;
50393;SDS011;36308;46.312;25.288;2023-04-25T00:20:40;11.32;;;7.15;;
50393;SDS011;36308;46.312;25.288;2023-04-25T00:23:14;9.27;;;7.18;;
50393;SDS011;36308;46.312;25.288;2023-04-25T00:25:43;10.30;;;6.97;;
50393;SDS011;36308;46.312;25.288;2023-04-25T00:28:15;10.95;;;6.72;;
50393;SDS011;36308;46.312;25.288;2023-04-25T00:30:42;9.93;;;6.35;;
50393;SDS011;36308;46.312;25.288;2023-04-25T00:33:08;9.25;;;6.15;;
50393;SDS011;36308;46.312;25.288;2023-04-25T00:35:35;10.73;;;6.50;;
50393;SDS011;36308;46.312;25.288;2023-04-25T00:38:00;9.30;;;6.80;;
50393;SDS011;36308;46.312;25.288;2023-04-25T00:40:26;8.02;;;6.20;;
50393;SDS011;36308;46.312;25.288;2023-04-25T00:42:52;29.83;;;15.48;;
50393;SDS011;36308;46.312;25.288;2023-04-25T00:45:18;14.07;;;8.20;;
50393;SDS011;36308;46.312;25.288;2023-04-25T00:47:45;12.75;;;6.45;;
50393;SDS011;36308;46.312;25.288;2023-04-25T00:50:10;8.90;;;6.60;;
50393;SDS011;36308;46.312;25.288;2023-04-25T00:52:39;8.38;;;6.13;;
50393;SDS011;36308;46.312;25.288;2023-04-25T00:55:07;15.90;;;6.75;;
50393;SDS011;36308;46.312;25.288;2023-04-25T00:57:34;9.23;;;6.32;;
50393;SDS011;36308;46.312;25.288;2023-04-25T01:00:00;8.98;;;6.30;;
50393;SDS011;36308;46.312;25.288;2023-04-25T01:02:26;15.73;;;6.32;;
50393;SDS011;36308;46.312;25.288;2023-04-25T01:04:52;10.43;;;6.75;;
50393;SDS011;36308;46.312;25.288;2023-04-25T01:07:18;10.70;;;6.15;;
50393;SDS011;36308;46.312;25.288;2023-04-25T01:09:43;10.55;;;6.60;;
50393;SDS011;36308;46.312;25.288;2023-04-25T01:12:09;10.23;;;6.40;;
50393;SDS011;36308;46.312;25.288;2023-04-25T01:14:34;9.10;;;6.15;;
50393;SDS011;36308;46.312;25.288;2023-04-25T01:17:00;11.40;;;6.40;;
50393;SDS011;36308;46.312;25.288;2023-04-25T01:19:26;10.60;;;7.05;;
50393;SDS011;36308;46.312;25.288;2023-04-25T01:21:52;10.20;;;7.25;;
50393;SDS011;36308;46.312;25.288;2023-04-25T01:24:18;11.10;;;7.20;;
50393;SDS011;36308;46.312;25.288;2023-04-25T01:26:43;12.27;;;7.57;;
50393;SDS011;36308;46.312;25.288;2023-04-25T01:29:14;16.25;;;10.95;;
50393;SDS011;36308;46.312;25.288;2023-04-25T01:31:44;11.30;;;8.43;;
50393;SDS011;36308;46.312;25.288;2023-04-25T01:34:10;11.38;;;8.05;;
50393;SDS011;36308;46.312;25.288;2023-04-25T01:36:36;11.23;;;7.93;;
50393;SDS011;36308;46.312;25.288;2023-04-25T01:39:01;12.10;;;7.80;;
50393;SDS011;36308;46.312;25.288;2023-04-25T01:41:27;11.68;;;7.85;;
50393;SDS011;36308;46.312;25.288;2023-04-25T01:43:53;12.20;;;7.80;;
50393;SDS011;36308;46.312;25.288;2023-04-25T01:46:20;10.02;;;7.43;;
50393;SDS011;36308;46.312;25.288;2023-04-25T01:48:45;11.27;;;7.43;;
50393;SDS011;36308;46.312;25.288;2023-04-25T01:51:11;10.05;;;7.82;;
50393;SDS011;36308;46.312;25.288;2023-04-25T01:53:37;12.25;;;7.50;;
50393;SDS011;36308;46.312;25.288;2023-04-25T01:56:04;9.50;;;6.70;;
50393;SDS011;36308;46.312;25.288;2023-04-25T01:58:30;8.98;;;6.25;;
50393;SDS011;36308;46.312;25.288;2023-04-25T02:00:55;10.50;;;6.47;;
50393;SDS011;36308;46.312;25.288;2023-04-25T02:03:21;7.75;;;6.18;;
50393;SDS011;36308;46.312;25.288;2023-04-25T02:05:46;9.70;;;6.97;;
50393;SDS011;36308;46.312;25.288;2023-04-25T02:08:12;12.40;;;6.60;;
50393;SDS011;36308;46.312;25.288;2023-04-25T02:10:38;12.70;;;7.70;;
50393;SDS011;36308;46.312;25.288;2023-04-25T02:13:03;13.85;;;7.47;;
50393;SDS011;36308;46.312;25.288;2023-04-25T02:15:30;12.55;;;6.85;;
50393;SDS011;36308;46.312;25.288;2023-04-25T02:17:57;8.55;;;6.05;;
50393;SDS011;36308;46.312;25.288;2023-04-25T02:20:23;15.35;;;10.70;;
50393;SDS011;36308;46.312;25.288;2023-04-25T02:22:49;13.13;;;9.02;;
50393;SDS011;36308;46.312;25.288;2023-04-25T02:25:15;12.77;;;7.60;;
50393;SDS011;36308;46.312;25.288;2023-04-25T02:27:41;13.13;;;8.77;;
50393;SDS011;36308;46.312;25.288;2023-04-25T02:30:07;12.98;;;8.88;;
50393;SDS011;36308;46.312;25.288;2023-04-25T02:32:33;12.52;;;6.95;;
50393;SDS011;36308;46.312;25.288;2023-04-25T02:35:00;12.05;;;7.35;;
50393;SDS011;36308;46.312;25.288;2023-04-25T02:37:38;12.77;;;7.65;;
50393;SDS011;36308;46.312;25.288;2023-04-25T02:40:04;17.35;;;10.25;;
50393;SDS011;36308;46.312;25.288;2023-04-25T02:42:31;14.40;;;10.63;;
50393;SDS011;36308;46.312;25.288;2023-04-25T02:44:57;14.77;;;11.40;;
50393;SDS011;36308;46.312;25.288;2023-04-25T02:47:22;15.20;;;11.30;;
50393;SDS011;36308;46.312;25.288;2023-04-25T02:49:48;15.55;;;10.85;;
50393;SDS011;36308;46.312;25.288;2023-04-25T02:52:14;17.75;;;11.00;;
50393;SDS011;36308;46.312;25.288;2023-04-25T02:54:39;14.10;;;9.57;;
50393;SDS011;36308;46.312;25.288;2023-04-25T02:57:05;11.95;;;9.15;;
50393;SDS011;36308;46.312;25.288;2023-04-25T02:59:31;18.10;;;10.70;;
50393;SDS011;36308;46.312;25.288;2023-04-25T03:01:57;14.95;;;10.82;;
50393;SDS011;36308;46.312;25.288;2023-04-25T03:04:23;12.20;;;9.50;;
50393;SDS011;36308;46.312;25.288;2023-04-25T03:06:49;15.30;;;10.32;;
50393;SDS011;36308;46.312;25.288;2023-04-25T03:09:15;14.05;;;10.10;;
50393;SDS011;36308;46.312;25.288;2023-04-25T03:11:41;16.17;;;9.98;;
50393;SDS011;36308;46.312;25.288;2023-04-25T03:14:07;14.05;;;9.65;;
50393;SDS011;36308;46.312;25.288;2023-04-25T03:16:33;16.73;;;9.77;;
50393;SDS011;36308;46.312;25.288;2023-04-25T03:18:58;14.05;;;10.10;;
50393;SDS011;36308;46.312;25.288;2023-04-25T03:21:24;12.13;;;8.77;;
50393;SDS011;36308;46.312;25.288;2023-04-25T03:23:50;14.23;;;10.00;;
50393;SDS011;36308;46.312;25.288;2023-04-25T03:26:15;12.13;;;9.60;;
50393;SDS011;36308;46.312;25.288;2023-04-25T03:28:41;12.32;;;10.35;;
50393;SDS011;36308;46.312;25.288;2023-04-25T03:31:07;14.77;;;11.07;;
50393;SDS011;36308;46.312;25.288;2023-04-25T03:33:33;17.67;;;11.80;;
50393;SDS011;36308;46.312;25.288;2023-04-25T03:35:58;31.52;;;20.17;;
50393;SDS011;36308;46.312;25.288;2023-04-25T03:38:24;22.83;;;14.23;;
50393;SDS011;36308;46.312;25.288;2023-04-25T03:40:51;28.27;;;17.58;;
50393;SDS011;36308;46.312;25.288;2023-04-25T03:43:18;15.43;;;11.20;;
50393;SDS011;36308;46.312;25.288;2023-04-25T03:45:44;12.98;;;8.80;;
50393;SDS011;36308;46.312;25.288;2023-04-25T03:48:11;14.65;;;10.57;;
50393;SDS011;36308;46.312;25.288;2023-04-25T03:50:36;15.82;;;10.48;;
50393;SDS011;36308;46.312;25.288;2023-04-25T03:53:02;15.85;;;9.80;;
50393;SDS011;36308;46.312;25.288;2023-04-25T03:55:27;12.82;;;9.35;;
50393;SDS011;36308;46.312;25.288;2023-04-25T03:57:53;13.80;;;9.18;;
50393;SDS011;36308;46.312;25.288;2023-04-25T04:00:18;11.95;;;8.50;;
50393;SDS011;36308;46.312;25.288;2023-04-25T04:02:44;10.05;;;7.93;;
50393;SDS011;36308;46.312;25.288;2023-04-25T04:05:10;13.15;;;8.98;;
50393;SDS011;36308;46.312;25.288;2023-04-25T04:07:35;11.38;;;8.32;;
50393;SDS011;36308;46.312;25.288;2023-04-25T04:10:13;11.38;;;8.23;;
50393;SDS011;36308;46.312;25.288;2023-04-25T04:12:39;11.82;;;9.18;;
50393;SDS011;36308;46.312;25.288;2023-04-25T04:15:05;13.77;;;11.50;;
50393;SDS011;36308;46.312;25.288;2023-04-25T04:17:31;15.80;;;12.35;;
50393;SDS011;36308;46.312;25.288;2023-04-25T04:19:57;13.35;;;8.82;;
50393;SDS011;36308;46.312;25.288;2023-04-25T04:22:23;12.55;;;9.70;;
50393;SDS011;36308;46.312;25.288;2023-04-25T04:24:49;13.20;;;10.50;;
50393;SDS011;36308;46.312;25.288;2023-04-25T04:27:16;17.23;;;11.30;;
50393;SDS011;36308;46.312;25.288;2023-04-25T04:29:46;17.95;;;13.02;;
50393;SDS011;36308;46.312;25.288;2023-04-25T04:32:12;21.05;;;14.32;;
50393;SDS011;36308;46.312;25.288;2023-04-25T04:34:38;26.55;;;15.77;;
50393;SDS011;36308;46.312;25.288;2023-04-25T04:37:04;16.48;;;12.32;;
50393;SDS011;36308;46.312;25.288;2023-04-25T04:39:32;16.23;;;12.30;;
50393;SDS011;36308;46.312;25.288;2023-04-25T04:41:58;21.27;;;14.07;;
50393;SDS011;36308;46.312;25.288;2023-04-25T04:44:24;22.33;;;14.98;;
50393;SDS011;36308;46.312;25.288;2023-04-25T04:46:50;23.88;;;17.08;;
50393;SDS011;36308;46.312;25.288;2023-04-25T04:49:16;24.88;;;16.38;;
50393;SDS011;36308;46.312;25.288;2023-04-25T04:51:42;23.63;;;16.55;;
50393;SDS011;36308;46.312;25.288;2023-04-25T04:54:09;25.27;;;17.02;;
50393;SDS011;36308;46.312;25.288;2023-04-25T04:56:35;29.92;;;22.15;;
50393;SDS011;36308;46.312;25.288;2023-04-25T04:59:00;28.30;;;20.55;;
50393;SDS011;36308;46.312;25.288;2023-04-25T05:01:27;25.38;;;17.67;;
50393;SDS011;36308;46.312;25.288;2023-04-25T05:03:54;28.90;;;20.25;;
50393;SDS011;36308;46.312;25.288;2023-04-25T05:06:25;29.20;;;19.08;;
50393;SDS011;36308;46.312;25.288;2023-04-25T05:08:51;28.73;;;18.50;;
50393;SDS011;36308;46.312;25.288;2023-04-25T05:11:17;23.33;;;16.77;;
50393;SDS011;36308;46.312;25.288;2023-04-25T05:13:44;24.92;;;17.15;;
50393;SDS011;36308;46.312;25.288;2023-04-25T05:16:11;27.42;;;16.98;;
50393;SDS011;36308;46.312;25.288;2023-04-25T05:18:36;23.35;;;16.70;;
50393;SDS011;36308;46.312;25.288;2023-04-25T05:21:02;24.70;;;18.40;;
50393;SDS011;36308;46.312;25.288;2023-04-25T05:23:28;25.02;;;18.50;;
50393;SDS011;36308;46.312;25.288;2023-04-25T05:25:55;25.73;;;19.77;;
50393;SDS011;36308;46.312;25.288;2023-04-25T05:28:20;26.08;;;18.52;;
50393;SDS011;36308;46.312;25.288;2023-04-25T05:30:46;41.50;;;30.80;;
50393;SDS011;36308;46.312;25.288;2023-04-25T05:33:12;8.55;;;6.68;;
50393;SDS011;36308;46.312;25.288;2023-04-25T05:35:39;13.02;;;8.55;;
50393;SDS011;36308;46.312;25.288;2023-04-25T05:38:05;19.10;;;12.13;;
50393;SDS011;36308;46.312;25.288;2023-04-25T05:40:31;16.65;;;12.25;;
50393;SDS011;36308;46.312;25.288;2023-04-25T05:42:56;17.52;;;12.57;;
50393;SDS011;36308;46.312;25.288;2023-04-25T05:45:22;18.75;;;14.00;;
50393;SDS011;36308;46.312;25.288;2023-04-25T05:47:48;19.45;;;13.30;;
50393;SDS011;36308;46.312;25.288;2023-04-25T05:50:14;24.58;;;13.98;;
50393;SDS011;36308;46.312;25.288;2023-04-25T05:52:40;20.48;;;12.65;;
50393;SDS011;36308;46.312;25.288;2023-04-25T05:55:05;19.90;;;13.07;;
50393;SDS011;36308;46.312;25.288;2023-04-25T05:57:31;20.33;;;13.38;;
50393;SDS011;36308;46.312;25.288;2023-04-25T05:59:57;21.10;;;13.93;;
50393;SDS011;36308;46.312;25.288;2023-04-25T06:02:23;19.50;;;14.88;;
50393;SDS011;36308;46.312;25.288;2023-04-25T06:04:51;26.70;;;15.90;;
50393;SDS011;36308;46.312;25.288;2023-04-25T06:07:17;27.83;;;16.80;;
50393;SDS011;36308;46.312;25.288;2023-04-25T06:09:44;23.20;;;17.55;;
50393;SDS011;36308;46.312;25.288;2023-04-25T06:12:09;28.90;;;19.08;;
50393;SDS011;36308;46.312;25.288;2023-04-25T06:14:35;29.85;;;22.08;;
50393;SDS011;36308;46.312;25.288;2023-04-25T06:17:01;32.22;;;21.17;;
50393;SDS011;36308;46.312;25.288;2023-04-25T06:19:37;33.65;;;21.45;;
50393;SDS011;36308;46.312;25.288;2023-04-25T06:22:02;30.20;;;19.55;;
50393;SDS011;36308;46.312;25.288;2023-04-25T06:24:28;33.80;;;20.42;;
50393;SDS011;36308;46.312;25.288;2023-04-25T06:26:54;30.65;;;19.33;;
50393;SDS011;36308;46.312;25.288;2023-04-25T06:29:20;26.08;;;18.13;;
50393;SDS011;36308;46.312;25.288;2023-04-25T06:31:46;19.52;;;14.57;;
50393;SDS011;36308;46.312;25.288;2023-04-25T06:34:11;23.25;;;14.73;;
50393;SDS011;36308;46.312;25.288;2023-04-25T06:36:37;23.35;;;14.45;;
50393;SDS011;36308;46.312;25.288;2023-04-25T06:39:02;33.90;;;13.88;;
50393;SDS011;36308;46.312;25.288;2023-04-25T06:41:28;31.65;;;14.35;;
50393;SDS011;36308;46.312;25.288;2023-04-25T06:43:53;20.27;;;13.13;;
50393;SDS011;36308;46.312;25.288;2023-04-25T06:46:19;21.10;;;13.30;;
50393;SDS011;36308;46.312;25.288;2023-04-25T06:48:44;22.45;;;15.48;;
50393;SDS011;36308;46.312;25.288;2023-04-25T06:51:10;18.88;;;13.45;;
50393;SDS011;36308;46.312;25.288;2023-04-25T06:53:36;26.17;;;15.77;;
50393;SDS011;36308;46.312;25.288;2023-04-25T06:56:01;22.30;;;16.38;;
50393;SDS011;36308;46.312;25.288;2023-04-25T06:58:28;24.27;;;15.27;;
50393;SDS011;36308;46.312;25.288;2023-04-25T07:00:53;24.73;;;14.88;;
50393;SDS011;36308;46.312;25.288;2023-04-25T07:03:19;23.20;;;15.45;;
50393;SDS011;36308;46.312;25.288;2023-04-25T07:05:45;23.88;;;16.08;;
50393;SDS011;36308;46.312;25.288;2023-04-25T07:08:11;19.83;;;14.32;;
50393;SDS011;36308;46.312;25.288;2023-04-25T07:10:36;18.70;;;13.35;;
50393;SDS011;36308;46.312;25.288;2023-04-25T07:13:02;20.38;;;14.63;;
50393;SDS011;36308;46.312;25.288;2023-04-25T07:15:27;18.05;;;12.75;;
50393;SDS011;36308;46.312;25.288;2023-04-25T07:17:53;17.17;;;11.75;;
50393;SDS011;36308;46.312;25.288;2023-04-25T07:20:19;17.65;;;9.85;;
50393;SDS011;36308;46.312;25.288;2023-04-25T07:22:44;11.48;;;6.95;;
50393;SDS011;36308;46.312;25.288;2023-04-25T07:25:10;12.25;;;7.95;;
50393;SDS011;36308;46.312;25.288;2023-04-25T07:27:36;13.25;;;8.20;;
50393;SDS011;36308;46.312;25.288;2023-04-25T07:30:02;12.63;;;8.70;;
50393;SDS011;36308;46.312;25.288;2023-04-25T07:32:28;15.77;;;8.82;;
50393;SDS011;36308;46.312;25.288;2023-04-25T07:34:54;16.63;;;9.13;;
50393;SDS011;36308;46.312;25.288;2023-04-25T07:37:20;10.40;;;8.38;;
50393;SDS011;36308;46.312;25.288;2023-04-25T07:39:45;10.57;;;8.48;;
50393;SDS011;36308;46.312;25.288;2023-04-25T07:42:11;12.57;;;8.10;;
50393;SDS011;36308;46.312;25.288;2023-04-25T07:44:37;11.18;;;7.82;;
50393;SDS011;36308;46.312;25.288;2023-04-25T07:47:08;15.18;;;8.27;;
50393;SDS011;36308;46.312;25.288;2023-04-25T07:49:35;10.65;;;7.47;;
50393;SDS011;36308;46.312;25.288;2023-04-25T07:52:01;8.95;;;7.28;;
50393;SDS011;36308;46.312;25.288;2023-04-25T07:54:31;11.88;;;7.75;;
50393;SDS011;36308;46.312;25.288;2023-04-25T07:56:57;9.30;;;6.72;;
50393;SDS011;36308;46.312;25.288;2023-04-25T07:59:23;7.78;;;6.28;;
50393;SDS011;36308;46.312;25.288;2023-04-25T08:01:49;10.38;;;6.90;;
50393;SDS011;36308;46.312;25.288;2023-04-25T08:04:15;10.40;;;6.75;;
50393;SDS011;36308;46.312;25.288;2023-04-25T08:06:41;8.75;;;7.00;;
50393;SDS011;36308;46.312;25.288;2023-04-25T08:09:06;9.20;;;6.05;;
50393;SDS011;36308;46.312;25.288;2023-04-25T08:11:34;7.65;;;6.15;;
50393;SDS011;36308;46.312;25.288;2023-04-25T08:14:00;14.07;;;7.07;;
50393;SDS011;36308;46.312;25.288;2023-04-25T08:16:26;10.73;;;6.70;;
50393;SDS011;36308;46.312;25.288;2023-04-25T08:18:52;10.55;;;7.47;;
50393;SDS011;36308;46.312;25.288;2023-04-25T08:21:18;10.93;;;7.15;;
50393;SDS011;36308;46.312;25.288;2023-04-25T08:23:43;12.82;;;7.90;;
50393;SDS011;36308;46.312;25.288;2023-04-25T08:26:09;8.75;;;6.13;;
50393;SDS011;36308;46.312;25.288;2023-04-25T08:28:35;11.95;;;7.20;;
50393;SDS011;36308;46.312;25.288;2023-04-25T08:31:00;10.13;;;6.70;;
50393;SDS011;36308;46.312;25.288;2023-04-25T08:33:26;8.07;;;6.07;;
50393;SDS011;36308;46.312;25.288;2023-04-25T08:35:51;7.85;;;6.45;;
50393;SDS011;36308;46.312;25.288;2023-04-25T08:38:17;11.00;;;6.28;;
50393;SDS011;36308;46.312;25.288;2023-04-25T08:40:43;12.45;;;6.88;;
50393;SDS011;36308;46.312;25.288;2023-04-25T08:43:09;11.30;;;7.00;;
50393;SDS011;36308;46.312;25.288;2023-04-25T08:45:39;15.20;;;7.75;;
50393;SDS011;36308;46.312;25.288;2023-04-25T08:48:10;9.43;;;6.38;;
50393;SDS011;36308;46.312;25.288;2023-04-25T08:50:40;13.63;;;5.85;;
50393;SDS011;36308;46.312;25.288;2023-04-25T08:53:10;9.13;;;6.07;;
50393;SDS011;36308;46.312;25.288;2023-04-25T08:55:43;8.13;;;5.47;;
50393;SDS011;36308;46.312;25.288;2023-04-25T08:58:11;9.60;;;6.20;;
50393;SDS011;36308;46.312;25.288;2023-04-25T09:00:38;6.75;;;5.28;;
50393;SDS011;36308;46.312;25.288;2023-04-25T09:03:04;8.18;;;5.82;;
50393;SDS011;36308;46.312;25.288;2023-04-25T09:05:30;11.23;;;5.97;;
50393;SDS011;36308;46.312;25.288;2023-04-25T09:08:00;10.85;;;5.78;;
50393;SDS011;36308;46.312;25.288;2023-04-25T09:10:27;8.35;;;5.90;;
50393;SDS011;36308;46.312;25.288;2023-04-25T09:13:06;12.00;;;6.55;;
50393;SDS011;36308;46.312;25.288;2023-04-25T09:16:09;6.93;;;5.80;;
50393;SDS011;36308;46.312;25.288;2023-04-25T09:18:28;11.43;;;6.68;;
50393;SDS011;36308;46.312;25.288;2023-04-25T09:21:04;8.60;;;6.07;;
50393;SDS011;36308;46.312;25.288;2023-04-25T09:23:31;8.82;;;6.35;;
50393;SDS011;36308;46.312;25.288;2023-04-25T09:26:14;9.48;;;6.47;;
50393;SDS011;36308;46.312;25.288;2023-04-25T09:28:44;12.55;;;6.38;;
50393;SDS011;36308;46.312;25.288;2023-04-25T09:31:11;8.55;;;6.20;;
50393;SDS011;36308;46.312;25.288;2023-04-25T09:33:37;7.78;;;5.40;;
50393;SDS011;36308;46.312;25.288;2023-04-25T09:36:09;10.63;;;5.53;;
50393;SDS011;36308;46.312;25.288;2023-04-25T09:38:42;10.23;;;5.68;;
50393;SDS011;36308;46.312;25.288;2023-04-25T09:41:09;9.70;;;4.95;;
50393;SDS011;36308;46.312;25.288;2023-04-25T09:43:36;9.60;;;5.22;;
50393;SDS011;36308;46.312;25.288;2023-04-25T09:46:02;7.55;;;5.00;;
50393;SDS011;36308;46.312;25.288;2023-04-25T09:48:33;11.60;;;5.80;;
50393;SDS011;36308;46.312;25.288;2023-04-25T09:51:06;7.57;;;5.15;;
50393;SDS011;36308;46.312;25.288;2023-04-25T09:53:33;7.68;;;4.97;;
50393;SDS011;36308;46.312;25.288;2023-04-25T09:56:03;11.00;;;4.85;;
50393;SDS011;36308;46.312;25.288;2023-04-25T09:58:31;14.35;;;5.22;;
50393;SDS011;36308;46.312;25.288;2023-04-25T10:00:59;10.55;;;4.38;;
50393;SDS011;36308;46.312;25.288;2023-04-25T10:03:28;7.25;;;4.47;;
50393;SDS011;36308;46.312;25.288;2023-04-25T10:05:56;6.40;;;4.20;;
50393;SDS011;36308;46.312;25.288;2023-04-25T10:08:25;5.57;;;3.92;;
50393;SDS011;36308;46.312;25.288;2023-04-25T10:10:58;6.00;;;4.40;;
50393;SDS011;36308;46.312;25.288;2023-04-25T10:13:29;6.22;;;3.80;;
50393;SDS011;36308;46.312;25.288;2023-04-25T10:15:59;4.78;;;3.47;;
50393;SDS011;36308;46.312;25.288;2023-04-25T10:18:26;5.05;;;3.22;;
50393;SDS011;36308;46.312;25.288;2023-04-25T10:20:56;9.63;;;3.92;;
50393;SDS011;36308;46.312;25.288;2023-04-25T10:23:24;4.40;;;3.58;;
50393;SDS011;36308;46.312;25.288;2023-04-25T10:25:51;7.18;;;3.92;;
50393;SDS011;36308;46.312;25.288;2023-04-25T10:28:18;6.18;;;3.85;;
50393;SDS011;36308;46.312;25.288;2023-04-25T10:31:07;4.63;;;3.85;;
50393;SDS011;36308;46.312;25.288;2023-04-25T10:33:35;5.57;;;4.03;;
50393;SDS011;36308;46.312;25.288;2023-04-25T10:36:12;3.90;;;3.10;;
50393;SDS011;36308;46.312;25.288;2023-04-25T10:38:40;6.47;;;3.50;;
50393;SDS011;36308;46.312;25.288;2023-04-25T10:41:07;5.90;;;3.00;;
50393;SDS011;36308;46.312;25.288;2023-04-25T10:46:03;3.58;;;2.65;;
50393;SDS011;36308;46.312;25.288;2023-04-25T10:48:45;8.15;;;2.92;;
50393;SDS011;36308;46.312;25.288;2023-04-25T10:51:20;2.63;;;2.20;;
50393;SDS011;36308;46.312;25.288;2023-04-25T10:56:31;5.53;;;2.33;;
50393;SDS011;36308;46.312;25.288;2023-04-25T10:59:04;5.53;;;2.72;;
50393;SDS011;36308;46.312;25.288;2023-04-25T11:01:37;3.80;;;2.35;;
50393;SDS011;36308;46.312;25.288;2023-04-25T11:04:06;2.45;;;2.05;;
50393;SDS011;36308;46.312;25.288;2023-04-25T11:06:55;3.85;;;2.45;;
50393;SDS011;36308;46.312;25.288;2023-04-25T11:09:28;3.35;;;2.42;;
50393;SDS011;36308;46.312;25.288;2023-04-25T11:11:54;4.28;;;2.17;;
50393;SDS011;36308;46.312;25.288;2023-04-25T11:14:20;4.47;;;2.60;;
50393;SDS011;36308;46.312;25.288;2023-04-25T11:16:46;2.40;;;2.17;;
50393;SDS011;36308;46.312;25.288;2023-04-25T11:19:12;3.10;;;2.30;;
50393;SDS011;36308;46.312;25.288;2023-04-25T11:21:38;5.57;;;2.25;;
50393;SDS011;36308;46.312;25.288;2023-04-25T11:24:03;3.85;;;2.35;;
50393;SDS011;36308;46.312;25.288;2023-04-25T11:26:29;2.75;;;2.17;;
50393;SDS011;36308;46.312;25.288;2023-04-25T11:28:58;2.83;;;2.20;;
50393;SDS011;36308;46.312;25.288;2023-04-25T11:31:28;3.00;;;2.30;;
50393;SDS011;36308;46.312;25.288;2023-04-25T11:33:56;5.00;;;2.28;;
50393;SDS011;36308;46.312;25.288;2023-04-25T11:36:23;5.05;;;2.58;;
50393;SDS011;36308;46.312;25.288;2023-04-25T11:38:50;2.40;;;2.20;;
50393;SDS011;36308;46.312;25.288;2023-04-25T11:41:17;4.40;;;2.40;;
50393;SDS011;36308;46.312;25.288;2023-04-25T11:43:43;5.43;;;2.50;;
50393;SDS011;36308;46.312;25.288;2023-04-25T11:46:09;4.78;;;2.38;;
50393;SDS011;36308;46.312;25.288;2023-04-25T11:48:38;5.80;;;2.65;;
50393;SDS011;36308;46.312;25.288;2023-04-25T11:51:05;3.28;;;2.40;;
50393;SDS011;36308;46.312;25.288;2023-04-25T11:53:31;4.28;;;2.70;;
50393;SDS011;36308;46.312;25.288;2023-04-25T11:55:56;3.88;;;2.50;;
50393;SDS011;36308;46.312;25.288;2023-04-25T11:58:22;3.38;;;2.50;;
50393;SDS011;36308;46.312;25.288;2023-04-25T12:00:48;7.43;;;2.70;;
50393;SDS011;36308;46.312;25.288;2023-04-25T12:03:13;4.93;;;2.65;;
50393;SDS011;36308;46.312;25.288;2023-04-25T12:05:39;4.88;;;2.72;;
50393;SDS011;36308;46.312;25.288;2023-04-25T12:08:11;4.50;;;2.63;;
50393;SDS011;36308;46.312;25.288;2023-04-25T12:10:41;5.70;;;2.30;;
50393;SDS011;36308;46.312;25.288;2023-04-25T12:13:23;4.50;;;2.55;;
50393;SDS011;36308;46.312;25.288;2023-04-25T12:15:50;3.20;;;2.55;;
50393;SDS011;36308;46.312;25.288;2023-04-25T12:18:20;4.68;;;2.72;;
50393;SDS011;36308;46.312;25.288;2023-04-25T12:20:48;6.07;;;2.83;;
50393;SDS011;36308;46.312;25.288;2023-04-25T12:23:13;7.95;;;2.53;;
50393;SDS011;36308;46.312;25.288;2023-04-25T12:33:18;7.82;;;3.10;;
50393;SDS011;36308;46.312;25.288;2023-04-25T12:35:43;4.35;;;3.20;;
50393;SDS011;36308;46.312;25.288;2023-04-25T12:38:09;5.28;;;3.17;;
50393;SDS011;36308;46.312;25.288;2023-04-25T12:40:35;6.57;;;3.40;;
50393;SDS011;36308;46.312;25.288;2023-04-25T12:43:01;4.30;;;3.15;;
50393;SDS011;36308;46.312;25.288;2023-04-25T12:45:26;8.23;;;3.30;;
50393;SDS011;36308;46.312;25.288;2023-04-25T12:47:52;9.85;;;3.45;;
50393;SDS011;36308;46.312;25.288;2023-04-25T12:50:17;7.45;;;3.20;;
50393;SDS011;36308;46.312;25.288;2023-04-25T12:52:43;7.00;;;3.25;;
50393;SDS011;36308;46.312;25.288;2023-04-25T12:55:08;7.70;;;2.75;;
50393;SDS011;36308;46.312;25.288;2023-04-25T12:57:34;6.93;;;2.67;;
50393;SDS011;36308;46.312;25.288;2023-04-25T13:00:00;4.05;;;2.60;;
50393;SDS011;36308;46.312;25.288;2023-04-25T13:02:25;2.53;;;1.80;;
50393;SDS011;36308;46.312;25.288;2023-04-25T13:04:51;3.10;;;1.80;;
50393;SDS011;36308;46.312;25.288;2023-04-25T13:07:16;10.50;;;4.85;;
50393;SDS011;36308;46.312;25.288;2023-04-25T13:09:42;3.13;;;1.40;;
50393;SDS011;36308;46.312;25.288;2023-04-25T13:12:08;3.92;;;1.70;;
50393;SDS011;36308;46.312;25.288;2023-04-25T13:14:33;1.88;;;1.48;;
50393;SDS011;36308;46.312;25.288;2023-04-25T13:16:59;4.80;;;1.33;;
50393;SDS011;36308;46.312;25.288;2023-04-25T13:19:25;6.07;;;3.50;;
50393;SDS011;36308;46.312;25.288;2023-04-25T13:21:51;22.33;;;8.30;;
50393;SDS011;36308;46.312;25.288;2023-04-25T13:24:16;24.50;;;9.15;;
50393;SDS011;36308;46.312;25.288;2023-04-25T13:26:42;34.45;;;12.38;;
50393;SDS011;36308;46.312;25.288;2023-04-25T13:29:08;12.00;;;4.18;;
50393;SDS011;36308;46.312;25.288;2023-04-25T13:31:33;16.30;;;13.55;;
50393;SDS011;36308;46.312;25.288;2023-04-25T13:33:59;6.45;;;3.75;;
50393;SDS011;36308;46.312;25.288;2023-04-25T13:36:25;9.32;;;4.38;;
50393;SDS011;36308;46.312;25.288;2023-04-25T13:38:50;3.97;;;2.67;;
50393;SDS011;36308;46.312;25.288;2023-04-25T13:41:16;8.00;;;3.45;;
50393;SDS011;36308;46.312;25.288;2023-04-25T13:43:43;9.15;;;3.25;;
50393;SDS011;36308;46.312;25.288;2023-04-25T13:46:09;8.82;;;3.45;;
50393;SDS011;36308;46.312;25.288;2023-04-25T13:48:36;4.30;;;2.70;;
50393;SDS011;36308;46.312;25.288;2023-04-25T13:51:02;3.72;;;2.20;;
50393;SDS011;36308;46.312;25.288;2023-04-25T13:53:28;3.88;;;2.47;;
50393;SDS011;36308;46.312;25.288;2023-04-25T13:55:53;5.75;;;3.55;;
50393;SDS011;36308;46.312;25.288;2023-04-25T13:58:19;6.20;;;4.35;;
50393;SDS011;36308;46.312;25.288;2023-04-25T14:00:45;9.95;;;6.47;;
50393;SDS011;36308;46.312;25.288;2023-04-25T14:03:11;11.35;;;6.45;;
50393;SDS011;36308;46.312;25.288;2023-04-25T14:05:37;8.25;;;6.05;;
50393;SDS011;36308;46.312;25.288;2023-04-25T14:08:04;11.73;;;5.95;;
50393;SDS011;36308;46.312;25.288;2023-04-25T14:10:33;11.75;;;6.25;;
50393;SDS011;36308;46.312;25.288;2023-04-25T14:13:00;10.70;;;6.57;;
50393;SDS011;36308;46.312;25.288;2023-04-25T14:15:26;9.75;;;6.88;;
50393;SDS011;36308;46.312;25.288;2023-04-25T14:17:51;12.55;;;8.02;;
50393;SDS011;36308;46.312;25.288;2023-04-25T14:20:17;13.60;;;7.45;;
50393;SDS011;36308;46.312;25.288;2023-04-25T14:22:45;10.77;;;7.28;;
50393;SDS011;36308;46.312;25.288;2023-04-25T14:25:11;15.27;;;9.68;;
50393;SDS011;36308;46.312;25.288;2023-04-25T14:27:36;24.10;;;17.45;;
50393;SDS011;36308;46.312;25.288;2023-04-25T14:30:02;19.23;;;12.20;;
50393;SDS011;36308;46.312;25.288;2023-04-25T14:32:27;15.40;;;10.80;;
50393;SDS011;36308;46.312;25.288;2023-04-25T14:34:53;16.10;;;8.50;;